Blue Star — ZHBM3 — position and weather

sailwx.info

Track history (hours):
 
Tides and Currents Weather Stations Pressure Air Temp Water Temp Dewpoint Dewpoint Depression Visibility Wind Speed Wind Dir Waves Ship Positions

Blue Star

Last reported at 2018-Jan-09 00:42 UTC. Time now 2018-Feb-24 18:11 UTC.
Position N 25°49' W 079°43'.
Warning: this ship's position is 46 days out of date.

Length 44 m; draft 3 m.

Type: Pleasure craft. MMSI: 319024000.

Date/timePositionNaut miles runAvg speedWind from/ knotsBaromVisibWave heightAir tempDewpointWater temp
2018-Jan-09 00:42N 25°49' W 079°43'1 7.3
2018-Jan-09 00:30N 25°50' W 079°44'4 7.6
2018-Jan-09 00:01N 25°53' W 079°47'4 8.0
2018-Jan-08 23:31N 25°55' W 079°51'4 8.3
2018-Jan-08 23:01N 25°58' W 079°54'4 8.5
2018-Jan-08 22:31N 26°00' W 079°58'4 8.5
2018-Jan-08 22:01N 26°03' W 080°02'4 7.9
2018-Jan-08 21:31N 26°06' W 080°05'2 4.0
2018-Jan-08 21:01N 26°06' W 080°07'2 3.0
2018-Jan-08 20:31N 26°07' W 080°09'1 2.3
2018-Jan-08 20:01N 26°06' W 080°10'0 0.9
2018-Jan-08 19:31N 26°06' W 080°10'0 0.0
2018-Jan-08 19:00N 26°06' W 080°10'0 0.0
2018-Jan-08 18:31N 26°06' W 080°10'0 0.0
2018-Jan-08 18:01N 26°06' W 080°10'0 0.0
2018-Jan-08 17:30N 26°06' W 080°10'0 0.0
2018-Jan-08 17:00N 26°06' W 080°10'0 0.0
2018-Jan-08 16:30N 26°06' W 080°10'0 0.0
2018-Jan-08 16:00N 26°06' W 080°10'0 0.0
2018-Jan-08 15:30N 26°06' W 080°10'0 0.0
2018-Jan-08 15:00N 26°06' W 080°10'0 0.0
2018-Jan-08 14:30N 26°06' W 080°10'0 0.0
2018-Jan-08 14:00N 26°06' W 080°10'0 0.0
2018-Jan-08 13:30N 26°06' W 080°10'0 0.0
2018-Jan-08 13:00N 26°06' W 080°10'0 0.0
2018-Jan-08 12:30N 26°06' W 080°10'0 0.0
2018-Jan-08 12:00N 26°06' W 080°10'0 0.0
2018-Jan-08 11:30N 26°06' W 080°10'0 0.0
2018-Jan-08 11:00N 26°06' W 080°10'0 0.0
2018-Jan-08 10:30N 26°06' W 080°10'0 0.0
2018-Jan-08 10:01N 26°06' W 080°10'0 0.0
2018-Jan-08 09:31N 26°06' W 080°10'0 0.0
2018-Jan-08 09:00N 26°06' W 080°10'0 0.0
2018-Jan-08 08:30N 26°06' W 080°10'0 0.0
2018-Jan-08 08:01N 26°06' W 080°10'0 0.0
2018-Jan-08 07:31N 26°06' W 080°10'0 0.0
2018-Jan-08 07:00N 26°06' W 080°10'0 0.0
2018-Jan-08 06:31N 26°06' W 080°10'0 0.0
2018-Jan-08 06:01N 26°06' W 080°10'0 0.0
2018-Jan-08 05:31N 26°06' W 080°10'0 0.0
2018-Jan-08 05:01N 26°06' W 080°10'0 0.0
2018-Jan-08 04:30N 26°06' W 080°10'0 0.0
2018-Jan-08 04:00N 26°06' W 080°10'0 0.0
2018-Jan-08 03:31N 26°06' W 080°10'0 0.0
2018-Jan-08 03:00N 26°06' W 080°10'0 0.0
2018-Jan-08 02:30N 26°06' W 080°10'0 0.0
2018-Jan-08 02:00N 26°06' W 080°10'0 0.0
2018-Jan-08 01:30N 26°06' W 080°10'0 0.0
2018-Jan-08 01:00N 26°06' W 080°10'0 0.0
2018-Jan-08 00:30N 26°06' W 080°10'0 0.0
2018-Jan-08 00:00N 26°06' W 080°10'0 0.0
2018-Jan-07 23:30N 26°06' W 080°10'0 0.0
2018-Jan-07 23:00N 26°06' W 080°10'0 0.0
2018-Jan-07 22:30N 26°06' W 080°10'0 0.0
2018-Jan-07 22:00N 26°06' W 080°10'0 0.0
2018-Jan-07 21:30N 26°06' W 080°10'0 0.0
2018-Jan-07 21:00N 26°06' W 080°10'0 0.0
2018-Jan-07 20:31N 26°06' W 080°10'0 0.0
2018-Jan-07 20:01N 26°06' W 080°10'0 0.0
2018-Jan-07 19:31N 26°06' W 080°10'0 0.0
2018-Jan-07 19:00N 26°06' W 080°10'0 0.0
2018-Jan-07 18:31N 26°06' W 080°10'0 0.0
2018-Jan-07 18:01N 26°06' W 080°10'0 0.0
2018-Jan-07 17:31N 26°06' W 080°10'0 0.0
2018-Jan-07 17:01N 26°06' W 080°10'0 0.0
2018-Jan-07 16:31N 26°06' W 080°10'0 0.0
2018-Jan-07 16:01N 26°06' W 080°10'0 0.0
2018-Jan-07 15:31N 26°06' W 080°10'0 0.0
2018-Jan-07 15:01N 26°06' W 080°10'0 0.0
2018-Jan-07 14:31N 26°06' W 080°10'0 0.0
2018-Jan-07 14:01N 26°06' W 080°10'0 0.0
2018-Jan-07 13:30N 26°06' W 080°10'0 0.0
2018-Jan-07 13:00N 26°06' W 080°10'0 0.0
2018-Jan-07 12:30N 26°06' W 080°10'0 0.0
2018-Jan-07 12:00N 26°06' W 080°10'0 0.0
2018-Jan-07 11:30N 26°06' W 080°10'0 0.0
2018-Jan-07 11:00N 26°06' W 080°10'0 0.0
2018-Jan-07 10:30N 26°06' W 080°10'0 0.0
2018-Jan-07 10:00N 26°06' W 080°10'0 0.0
2018-Jan-07 09:30N 26°06' W 080°10'0 0.0
2018-Jan-07 09:00N 26°06' W 080°10'0 0.0
2018-Jan-07 08:30N 26°06' W 080°10'0 0.0
2018-Jan-07 08:00N 26°06' W 080°10'0 0.0
2018-Jan-07 07:30N 26°06' W 080°10'0 0.0
2018-Jan-07 07:00N 26°06' W 080°10'0 0.0
2018-Jan-07 06:31N 26°06' W 080°10'0 0.0
2018-Jan-07 06:01N 26°06' W 080°10'0 0.0
2018-Jan-07 05:31N 26°06' W 080°10'0 0.0
2018-Jan-07 05:01N 26°06' W 080°10'0 0.0
2018-Jan-07 04:31N 26°06' W 080°10'0 0.0
2018-Jan-07 04:01N 26°06' W 080°10'0 0.0
2018-Jan-07 03:31N 26°06' W 080°10'0 0.0
2018-Jan-07 03:01N 26°06' W 080°10'0 0.0
2018-Jan-07 02:31N 26°06' W 080°10'0 0.0
2018-Jan-07 02:01N 26°06' W 080°10'0 0.0
2018-Jan-07 01:31N 26°06' W 080°10'0 0.0
2018-Jan-07 00:31N 26°06' W 080°10'0 0.0
2018-Jan-07 00:01N 26°06' W 080°10'0 0.0
2018-Jan-06 23:30N 26°06' W 080°10'0 0.0
2018-Jan-06 23:00N 26°06' W 080°10'0 0.0
2018-Jan-06 22:30N 26°06' W 080°10'0 0.0
2018-Jan-06 22:00N 26°06' W 080°10'0 0.0
2018-Jan-06 21:30N 26°06' W 080°10'0 0.0
2018-Jan-06 21:00N 26°06' W 080°10'0 0.0
2018-Jan-06 20:30N 26°06' W 080°10'0 0.0
2018-Jan-06 20:00N 26°06' W 080°10'0 0.0
2018-Jan-06 19:30N 26°06' W 080°10'0 0.0
2018-Jan-06 19:00N 26°06' W 080°10'0 0.0
2018-Jan-06 18:30N 26°06' W 080°10'0 0.0
2018-Jan-06 18:00N 26°06' W 080°10'0 0.0
2018-Jan-06 17:30N 26°06' W 080°10'0 0.0
2018-Jan-06 17:01N 26°06' W 080°10'0 0.0
2018-Jan-06 16:31N 26°06' W 080°10'0 0.0
2018-Jan-06 16:00N 26°06' W 080°10'0 0.0
2018-Jan-06 15:30N 26°06' W 080°10'0 0.0
2018-Jan-06 15:01N 26°06' W 080°10'0 0.0
2018-Jan-06 14:31N 26°06' W 080°10'0 0.0
2018-Jan-06 14:00N 26°06' W 080°10'0 0.0
2018-Jan-06 13:31N 26°06' W 080°10'0 0.0
2018-Jan-06 13:00N 26°06' W 080°10'0 0.0
2018-Jan-06 12:30N 26°06' W 080°10'0 0.0
2018-Jan-06 12:01N 26°06' W 080°10'0 0.0
2018-Jan-06 11:31N 26°06' W 080°10'0 0.0
2018-Jan-06 11:01N 26°06' W 080°10'0 0.0
2018-Jan-06 10:31N 26°06' W 080°10'0 0.0
2018-Jan-06 10:01N 26°06' W 080°10'0 0.0
2018-Jan-06 09:30N 26°06' W 080°10'0 0.0
2018-Jan-06 09:00N 26°06' W 080°10'0 0.0
2018-Jan-06 08:30N 26°06' W 080°10'0 0.0
2018-Jan-06 08:00N 26°06' W 080°10'0 0.0
2018-Jan-06 07:30N 26°06' W 080°10'0 0.0
2018-Jan-06 07:00N 26°06' W 080°10'0 0.0
2018-Jan-06 06:30N 26°06' W 080°10'0 0.0
2018-Jan-06 06:00N 26°06' W 080°10'0 0.0
2018-Jan-06 05:30N 26°06' W 080°10'0 0.0
2018-Jan-06 05:00N 26°06' W 080°10'0 0.0
2018-Jan-06 04:30N 26°06' W 080°10'0 0.0
2018-Jan-06 04:00N 26°06' W 080°10'0 0.0
2018-Jan-06 03:30N 26°06' W 080°10'0 0.0
2018-Jan-06 03:00N 26°06' W 080°10'0 0.0
2018-Jan-06 02:31N 26°06' W 080°10'0 0.0
2018-Jan-06 02:01N 26°06' W 080°10'0 0.0
2018-Jan-06 01:31N 26°06' W 080°10'0 0.0
2018-Jan-06 01:00N 26°06' W 080°10'0 0.0
2018-Jan-06 00:31N 26°06' W 080°10'0 0.0
2018-Jan-06 00:01N 26°06' W 080°10'0 0.0
2018-Jan-05 23:30N 26°06' W 080°10'0 0.0
2018-Jan-05 23:01N 26°06' W 080°10'0 0.0
2018-Jan-05 22:30N 26°06' W 080°10'0 0.0
2018-Jan-05 22:01N 26°06' W 080°10'0 0.0
2018-Jan-05 21:30N 26°06' W 080°10'0 0.0
2018-Jan-05 21:01N 26°06' W 080°10'0 0.0
2018-Jan-05 20:31N 26°06' W 080°10'0 0.0
2018-Jan-05 20:01N 26°06' W 080°10'0 0.0
2018-Jan-05 19:30N 26°06' W 080°10'0 0.0
2018-Jan-05 19:00N 26°06' W 080°10'0 0.0
2018-Jan-05 18:30N 26°06' W 080°10'0 0.0
2018-Jan-05 18:00N 26°06' W 080°10'0 0.0
2018-Jan-05 17:30N 26°06' W 080°10'0 0.0
2018-Jan-05 17:00N 26°06' W 080°10'0 0.0
2018-Jan-05 16:30N 26°06' W 080°10'0 0.0
2018-Jan-05 16:00N 26°06' W 080°10'0 0.0
2018-Jan-05 15:30N 26°06' W 080°10'0 0.0
2018-Jan-05 15:00N 26°06' W 080°10'0 0.0
2018-Jan-05 14:30N 26°06' W 080°10'0 0.0
2018-Jan-05 14:00N 26°06' W 080°10'0 0.0
2018-Jan-05 13:30N 26°06' W 080°10'0 0.0
2018-Jan-05 13:01N 26°06' W 080°10'0 0.0
2018-Jan-05 12:31N 26°06' W 080°10'0 0.0
2018-Jan-05 12:01N 26°06' W 080°10'0 0.0
2018-Jan-05 11:30N 26°06' W 080°10'0 0.0
2018-Jan-05 11:01N 26°06' W 080°10'0 0.0
2018-Jan-05 10:31N 26°06' W 080°10'0 0.0
2018-Jan-05 10:01N 26°06' W 080°10'0 0.0
2018-Jan-05 09:31N 26°06' W 080°10'0 0.0
2018-Jan-05 09:01N 26°06' W 080°10'0 0.0
2018-Jan-05 08:30N 26°06' W 080°10'0 0.0
2018-Jan-05 08:01N 26°06' W 080°10'0 0.0
2018-Jan-05 07:31N 26°06' W 080°10'0 0.0
2018-Jan-05 07:01N 26°06' W 080°10'0 0.0
2018-Jan-05 06:30N 26°06' W 080°10'0 0.0
2018-Jan-05 06:00N 26°06' W 080°10'0 0.0
2018-Jan-05 05:30N 26°06' W 080°10'0 0.0
2018-Jan-05 05:00N 26°06' W 080°10'0 0.0
2018-Jan-05 04:30N 26°06' W 080°10'0 0.0
2018-Jan-05 04:01N 26°06' W 080°10'0 0.0
2018-Jan-05 03:31N 26°06' W 080°10'0 0.0
2018-Jan-05 03:00N 26°06' W 080°10'0 0.0
2018-Jan-05 02:30N 26°06' W 080°10'0 0.0
2018-Jan-05 02:00N 26°06' W 080°10'0 0.0
2018-Jan-05 01:30N 26°06' W 080°10'0 0.0
2018-Jan-05 01:00N 26°06' W 080°10'0 0.0
2018-Jan-05 00:30N 26°06' W 080°10'0 0.0
2018-Jan-05 00:00N 26°06' W 080°10'0 0.0
2018-Jan-04 23:30N 26°06' W 080°10'0 0.0
2018-Jan-04 23:01N 26°06' W 080°10'0 0.0
2018-Jan-04 22:30N 26°06' W 080°10'0 0.0
2018-Jan-04 22:01N 26°06' W 080°10'0 0.0
2018-Jan-04 21:30N 26°06' W 080°10'0 0.0
2018-Jan-04 21:01N 26°06' W 080°10'0 0.0
2018-Jan-04 20:31N 26°06' W 080°10'0 0.0
2018-Jan-04 20:01N 26°06' W 080°10'0 0.0
2018-Jan-04 19:30N 26°06' W 080°10'0 0.0
2018-Jan-04 19:01N 26°06' W 080°10'0 0.0
2018-Jan-04 18:31N 26°06' W 080°10'0 0.0
2018-Jan-04 18:00N 26°06' W 080°10'0 0.0
2018-Jan-04 17:31N 26°06' W 080°10'0 0.0
2018-Jan-04 17:01N 26°06' W 080°10'0 0.0
2018-Jan-04 16:31N 26°06' W 080°10'0 0.0
2018-Jan-04 16:00N 26°06' W 080°10'0 0.0
2018-Jan-03 16:58N 26°06' W 080°10'0 0.0
2018-Jan-03 16:28N 26°06' W 080°10'0 0.0
2018-Jan-03 16:00N 26°06' W 080°10'0 0.0
2018-Jan-03 15:30N 26°06' W 080°10'0 0.0
2018-Jan-03 15:00N 26°06' W 080°10'0 0.0
2018-Jan-03 14:30N 26°06' W 080°10'0 0.0
2018-Jan-03 14:00N 26°06' W 080°10'0 0.0
2018-Jan-03 13:30N 26°06' W 080°10'0 0.0
2018-Jan-03 13:00N 26°06' W 080°10'0 0.0
2018-Jan-03 12:30N 26°06' W 080°10'0 0.0
2018-Jan-03 12:01N 26°06' W 080°10'0 0.0
2018-Jan-03 11:31N 26°06' W 080°10'0 0.0
2018-Jan-03 11:01N 26°06' W 080°10'0 0.0
2018-Jan-03 10:30N 26°06' W 080°10'0 0.0
2018-Jan-03 10:01N 26°06' W 080°10'0 0.0
2018-Jan-03 09:31N 26°06' W 080°10'0 0.0
2018-Jan-03 09:00N 26°06' W 080°10'0 0.0
2018-Jan-03 08:31N 26°06' W 080°10'0 0.0
2018-Jan-03 08:01N 26°06' W 080°10'0 0.0
2018-Jan-03 07:30N 26°06' W 080°10'0 0.0
2018-Jan-03 07:00N 26°06' W 080°10'0 0.0
2018-Jan-03 06:31N 26°06' W 080°10'0 0.0
2018-Jan-03 06:01N 26°06' W 080°10'0 0.0
2018-Jan-03 05:31N 26°06' W 080°10'0 0.0
2018-Jan-03 05:00N 26°06' W 080°10'0 0.0
2018-Jan-03 04:30N 26°06' W 080°10'0 0.0
2018-Jan-03 04:00N 26°06' W 080°10'0 0.0
2018-Jan-03 03:30N 26°06' W 080°10'0 0.0
2018-Jan-03 03:00N 26°06' W 080°10'0 0.0
2018-Jan-03 02:30N 26°06' W 080°10'0 0.0
2018-Jan-03 02:00N 26°06' W 080°10'0 0.0
2018-Jan-03 01:30N 26°06' W 080°10'0 0.0
2018-Jan-03 01:00N 26°06' W 080°10'0 0.0
2018-Jan-03 00:30N 26°06' W 080°10'0 0.0
2018-Jan-03 00:00N 26°06' W 080°10'0 0.0
2018-Jan-02 23:30N 26°06' W 080°10'0 0.0
2018-Jan-02 23:00N 26°06' W 080°10'0 0.0
2018-Jan-02 22:31N 26°06' W 080°10'0 0.0
2018-Jan-02 22:01N 26°06' W 080°10'0 0.0
2018-Jan-02 21:31N 26°06' W 080°10'0 0.0
2018-Jan-02 21:01N 26°06' W 080°10'0 0.0
2018-Jan-02 20:31N 26°06' W 080°10'0 0.0
2018-Jan-02 20:01N 26°06' W 080°10'0 0.0
2018-Jan-02 19:30N 26°06' W 080°10'0 0.0
2018-Jan-02 19:00N 26°06' W 080°10'0 0.0
2018-Jan-02 18:31N 26°06' W 080°10'0 0.0
2018-Jan-02 18:01N 26°06' W 080°10'0 0.0
2018-Jan-02 17:31N 26°06' W 080°10'0 0.0
2018-Jan-02 17:01N 26°06' W 080°10'0 0.0
2018-Jan-02 16:31N 26°06' W 080°10'0 0.0
2018-Jan-02 16:00N 26°06' W 080°10'0 0.0
2018-Jan-02 15:30N 26°06' W 080°10'0 0.0
2018-Jan-02 15:01N 26°06' W 080°10'0 0.0
2018-Jan-02 14:30N 26°06' W 080°10'0 0.0
2018-Jan-02 14:01N 26°06' W 080°10'0 0.0
2018-Jan-02 13:30N 26°06' W 080°10'0 0.0
2018-Jan-02 13:00N 26°06' W 080°10'0 0.0
2018-Jan-02 12:30N 26°06' W 080°10'0 0.0
2018-Jan-02 12:01N 26°06' W 080°10'0 0.0
2018-Jan-02 11:31N 26°06' W 080°10'0 0.0
2018-Jan-02 11:00N 26°06' W 080°10'0 0.0
2018-Jan-02 10:31N 26°06' W 080°10'0 0.0
2018-Jan-02 10:01N 26°06' W 080°10'0 0.0
2018-Jan-02 09:31N 26°06' W 080°10'0 0.0
2018-Jan-02 08:31N 26°06' W 080°10'0 0.0
2018-Jan-02 08:01N 26°06' W 080°10'0 0.0
2018-Jan-02 07:31N 26°06' W 080°10'0 0.0
2018-Jan-02 07:01N 26°06' W 080°10'0 0.0
2018-Jan-02 06:31N 26°06' W 080°10'0 0.0
2018-Jan-02 06:00N 26°06' W 080°10'0 0.0
2018-Jan-02 05:31N 26°06' W 080°10'0 0.0
2018-Jan-02 04:30N 26°06' W 080°10'0 0.0
2018-Jan-02 04:01N 26°06' W 080°10'0 0.0
2018-Jan-02 03:31N 26°06' W 080°10'0 0.0
2018-Jan-02 03:01N 26°06' W 080°10'0 0.0
2018-Jan-02 02:31N 26°06' W 080°10'0 0.0
2018-Jan-02 02:01N 26°06' W 080°10'0 0.0
2018-Jan-02 01:30N 26°06' W 080°10'0 0.0
2018-Jan-02 01:01N 26°06' W 080°10'0 0.0
2018-Jan-02 00:30N 26°06' W 080°10'0 0.0
2018-Jan-02 00:00N 26°06' W 080°10'0 0.0
2018-Jan-01 23:31N 26°06' W 080°10'0 0.0
2018-Jan-01 23:01N 26°06' W 080°10'0 0.0
2018-Jan-01 22:30N 26°06' W 080°10'0 0.0
2018-Jan-01 22:01N 26°06' W 080°10'0 0.0
2018-Jan-01 21:31N 26°06' W 080°10'0 0.0
2018-Jan-01 21:00N 26°06' W 080°10'0 0.0
2018-Jan-01 20:31N 26°06' W 080°10'0 0.0
2018-Jan-01 20:00N 26°06' W 080°10'0 0.0
2018-Jan-01 19:30N 26°06' W 080°10'0 0.0
2018-Jan-01 19:00N 26°06' W 080°10'0 0.0
2018-Jan-01 18:31N 26°06' W 080°10'0 0.0
2018-Jan-01 18:01N 26°06' W 080°10'0 0.0
2018-Jan-01 17:31N 26°06' W 080°10'0 0.0
2018-Jan-01 15:01N 26°06' W 080°10'0 0.0
2018-Jan-01 14:31N 26°06' W 080°10'0 0.0
2018-Jan-01 14:00N 26°06' W 080°10'0 0.0
2018-Jan-01 13:31N 26°06' W 080°10'0 0.0
2018-Jan-01 13:01N 26°06' W 080°10'0 0.0
2018-Jan-01 12:01N 26°06' W 080°10'0 0.0
2018-Jan-01 11:30N 26°06' W 080°10'0 0.0
2018-Jan-01 11:00N 26°06' W 080°10'0 0.0
2018-Jan-01 10:30N 26°06' W 080°10'0 0.0
2018-Jan-01 10:01N 26°06' W 080°10'0 0.0
2018-Jan-01 09:30N 26°06' W 080°10'0 0.0
2018-Jan-01 08:31N 26°06' W 080°10'0 0.0
2018-Jan-01 08:01N 26°06' W 080°10'0 0.0
2018-Jan-01 07:31N 26°06' W 080°10'0 0.0
2018-Jan-01 07:00N 26°06' W 080°10'0 0.0
2018-Jan-01 06:01N 26°06' W 080°10'0 0.0
2018-Jan-01 05:30N 26°06' W 080°10'0 0.0
2018-Jan-01 05:00N 26°06' W 080°10'0 0.0
2018-Jan-01 04:01N 26°06' W 080°10'0 0.0
2018-Jan-01 03:30N 26°06' W 080°10'0 0.0
2018-Jan-01 03:00N 26°06' W 080°10'0 0.0
2018-Jan-01 02:30N 26°06' W 080°10'0 0.0
2018-Jan-01 02:00N 26°06' W 080°10'0 0.0
2018-Jan-01 01:31N 26°06' W 080°10'0 0.0
2018-Jan-01 00:31N 26°06' W 080°10'0 0.0
2017-Dec-31 21:01N 26°06' W 080°10'0 0.0
2017-Dec-31 20:30N 26°06' W 080°10'0 0.0
2017-Dec-31 20:01N 26°06' W 080°10'0 0.0
2017-Dec-31 19:30N 26°06' W 080°10'0 0.0
2017-Dec-31 19:00N 26°06' W 080°10'0 0.0
2017-Dec-31 18:31N 26°06' W 080°10'0 0.0
2017-Dec-31 18:00N 26°06' W 080°10'0 0.0
2017-Dec-31 17:31N 26°06' W 080°10'0 0.0
2017-Dec-31 17:00N 26°06' W 080°10'0 0.0
2017-Dec-31 16:30N 26°06' W 080°10'0 0.0
2017-Dec-31 16:00N 26°06' W 080°10'0 0.0
2017-Dec-31 15:30N 26°06' W 080°10'0 0.0
2017-Dec-31 15:00N 26°06' W 080°10'0 0.0
2017-Dec-31 14:30N 26°06' W 080°10'0 0.0
2017-Dec-31 14:00N 26°06' W 080°10'0 0.0
2017-Dec-31 13:30N 26°06' W 080°10'0 0.0
2017-Dec-31 13:00N 26°06' W 080°10'0 0.0
2017-Dec-31 12:31N 26°06' W 080°10'0 0.0
2017-Dec-31 12:00N 26°06' W 080°10'0 0.0
2017-Dec-31 11:31N 26°06' W 080°10'0 0.0
2017-Dec-31 11:01N 26°06' W 080°10'0 0.0
2017-Dec-31 10:30N 26°06' W 080°10'0 0.0
2017-Dec-31 10:00N 26°06' W 080°10'0 0.0
2017-Dec-31 09:30N 26°06' W 080°10'0 0.0
2017-Dec-31 09:00N 26°06' W 080°10'0 0.0
2017-Dec-31 08:30N 26°06' W 080°10'0 0.0
2017-Dec-31 08:00N 26°06' W 080°10'0 0.0
2017-Dec-31 07:30N 26°06' W 080°10'0 0.0
2017-Dec-31 07:00N 26°06' W 080°10'0 0.0
2017-Dec-31 06:30N 26°06' W 080°10'0 0.0
2017-Dec-31 06:00N 26°06' W 080°10'0 0.0
2017-Dec-31 05:30N 26°06' W 080°10'0 0.0
2017-Dec-31 05:00N 26°06' W 080°10'0 0.0
2017-Dec-31 04:30N 26°06' W 080°10'0 0.0
2017-Dec-31 04:00N 26°06' W 080°10'0 0.0
2017-Dec-31 03:30N 26°06' W 080°10'0 0.0
2017-Dec-31 03:00N 26°06' W 080°10'0 0.0
2017-Dec-31 02:30N 26°06' W 080°10'0 0.0
2017-Dec-31 02:01N 26°06' W 080°10'0 0.0
2017-Dec-31 01:30N 26°06' W 080°10'0 0.0
2017-Dec-31 01:00N 26°06' W 080°10'0 0.0
2017-Dec-31 00:30N 26°06' W 080°10'0 0.0
2017-Dec-31 00:00N 26°06' W 080°10'0 0.0
2017-Dec-30 23:31N 26°06' W 080°10'0 0.0
2017-Dec-30 23:00N 26°06' W 080°10'0 0.0
2017-Dec-30 22:30N 26°06' W 080°10'0 0.0
2017-Dec-30 22:00N 26°06' W 080°10'0 0.0
2017-Dec-30 21:30N 26°06' W 080°10'0 0.0
2017-Dec-30 21:01N 26°06' W 080°10'0 0.0
2017-Dec-30 20:30N 26°06' W 080°10'0 0.0
2017-Dec-30 20:00N 26°06' W 080°10'0 0.0
2017-Dec-30 19:31N 26°06' W 080°10'0 0.0
2017-Dec-30 19:00N 26°06' W 080°10'0 0.0
2017-Dec-30 18:31N 26°06' W 080°10'0 0.0
2017-Dec-30 18:00N 26°06' W 080°10'0 0.0
2017-Dec-30 17:30N 26°06' W 080°10'0 0.0
2017-Dec-30 17:00N 26°06' W 080°10'0 0.0
2017-Dec-30 16:30N 26°06' W 080°10'0 0.0
2017-Dec-30 16:00N 26°06' W 080°10'0 0.0
2017-Dec-30 15:30N 26°06' W 080°10'0 0.0
2017-Dec-30 15:00N 26°06' W 080°10'0 0.0
2017-Dec-30 14:30N 26°06' W 080°10'0 0.0
2017-Dec-30 14:00N 26°06' W 080°10'0 0.0
2017-Dec-30 13:30N 26°06' W 080°10'0 0.0
2017-Dec-30 13:01N 26°06' W 080°10'0 0.0
2017-Dec-30 12:30N 26°06' W 080°10'0 0.0
2017-Dec-30 12:00N 26°06' W 080°10'0 0.0
2017-Dec-30 11:30N 26°06' W 080°10'0 0.0
2017-Dec-30 11:00N 26°06' W 080°10'0 0.0
2017-Dec-30 10:30N 26°06' W 080°10'0 0.0
2017-Dec-30 10:00N 26°06' W 080°10'0 0.0
2017-Dec-30 09:31N 26°06' W 080°10'0 0.0
2017-Dec-30 09:00N 26°06' W 080°10'0 0.0
2017-Dec-30 08:31N 26°06' W 080°10'0 0.0
2017-Dec-30 08:00N 26°06' W 080°10'0 0.0
2017-Dec-30 07:31N 26°06' W 080°10'0 0.0
2017-Dec-30 07:01N 26°06' W 080°10'0 0.0
2017-Dec-30 06:30N 26°06' W 080°10'0 0.0
2017-Dec-30 06:01N 26°06' W 080°10'0 0.0
2017-Dec-30 05:30N 26°06' W 080°10'0 0.0
2017-Dec-30 05:00N 26°06' W 080°10'0 0.0
2017-Dec-30 04:30N 26°06' W 080°10'0 0.0
2017-Dec-30 04:00N 26°06' W 080°10'0 0.0
2017-Dec-30 03:30N 26°06' W 080°10'0 0.0
2017-Dec-30 03:00N 26°06' W 080°10'0 0.0
2017-Dec-30 02:30N 26°06' W 080°10'0 0.0
2017-Dec-30 02:00N 26°06' W 080°10'0 0.0
2017-Dec-30 01:31N 26°06' W 080°10'0 0.0
2017-Dec-30 01:00N 26°06' W 080°10'  
Track history (hours):
 
Tides and Currents Weather Stations Pressure Air Temp Water Temp Dewpoint Dewpoint Depression Visibility Wind Speed Wind Dir Waves Ship Positions

Blue Star

Last reported at 2018-Jan-09 00:42 UTC. Time now 2018-Feb-24 18:11 UTC.
Position N 25°49' W 079°43'.
Warning: this ship's position is 46 days out of date.

Length 44 m; draft 3 m.

Type: Pleasure craft. MMSI: 319024000.

Date/timePositionNaut miles runAvg speedWind from/ knotsBaromVisibWave heightAir tempDewpointWater temp
2018-Jan-09 00:42N 25°49' W 079°43'1 7.3
2018-Jan-09 00:30N 25°50' W 079°44'4 7.6
2018-Jan-09 00:01N 25°53' W 079°47'4 8.0
2018-Jan-08 23:31N 25°55' W 079°51'4 8.3
2018-Jan-08 23:01N 25°58' W 079°54'4 8.5
2018-Jan-08 22:31N 26°00' W 079°58'4 8.5
2018-Jan-08 22:01N 26°03' W 080°02'4 7.9
2018-Jan-08 21:31N 26°06' W 080°05'2 4.0
2018-Jan-08 21:01N 26°06' W 080°07'2 3.0
2018-Jan-08 20:31N 26°07' W 080°09'1 2.3
2018-Jan-08 20:01N 26°06' W 080°10'0 0.9
2018-Jan-08 19:31N 26°06' W 080°10'0 0.0
2018-Jan-08 19:00N 26°06' W 080°10'0 0.0
2018-Jan-08 18:31N 26°06' W 080°10'0 0.0
2018-Jan-08 18:01N 26°06' W 080°10'0 0.0
2018-Jan-08 17:30N 26°06' W 080°10'0 0.0
2018-Jan-08 17:00N 26°06' W 080°10'0 0.0
2018-Jan-08 16:30N 26°06' W 080°10'0 0.0
2018-Jan-08 16:00N 26°06' W 080°10'0 0.0
2018-Jan-08 15:30N 26°06' W 080°10'0 0.0
2018-Jan-08 15:00N 26°06' W 080°10'0 0.0
2018-Jan-08 14:30N 26°06' W 080°10'0 0.0
2018-Jan-08 14:00N 26°06' W 080°10'0 0.0
2018-Jan-08 13:30N 26°06' W 080°10'0 0.0
2018-Jan-08 13:00N 26°06' W 080°10'0 0.0
2018-Jan-08 12:30N 26°06' W 080°10'0 0.0
2018-Jan-08 12:00N 26°06' W 080°10'0 0.0
2018-Jan-08 11:30N 26°06' W 080°10'0 0.0
2018-Jan-08 11:00N 26°06' W 080°10'0 0.0
2018-Jan-08 10:30N 26°06' W 080°10'0 0.0
2018-Jan-08 10:01N 26°06' W 080°10'0 0.0
2018-Jan-08 09:31N 26°06' W 080°10'0 0.0
2018-Jan-08 09:00N 26°06' W 080°10'0 0.0
2018-Jan-08 08:30N 26°06' W 080°10'0 0.0
2018-Jan-08 08:01N 26°06' W 080°10'0 0.0
2018-Jan-08 07:31N 26°06' W 080°10'0 0.0
2018-Jan-08 07:00N 26°06' W 080°10'0 0.0
2018-Jan-08 06:31N 26°06' W 080°10'0 0.0
2018-Jan-08 06:01N 26°06' W 080°10'0 0.0
2018-Jan-08 05:31N 26°06' W 080°10'0 0.0
2018-Jan-08 05:01N 26°06' W 080°10'0 0.0
2018-Jan-08 04:30N 26°06' W 080°10'0 0.0
2018-Jan-08 04:00N 26°06' W 080°10'0 0.0
2018-Jan-08 03:31N 26°06' W 080°10'0 0.0
2018-Jan-08 03:00N 26°06' W 080°10'0 0.0
2018-Jan-08 02:30N 26°06' W 080°10'0 0.0
2018-Jan-08 02:00N 26°06' W 080°10'0 0.0
2018-Jan-08 01:30N 26°06' W 080°10'0 0.0
2018-Jan-08 01:00N 26°06' W 080°10'0 0.0
2018-Jan-08 00:30N 26°06' W 080°10'0 0.0
2018-Jan-08 00:00N 26°06' W 080°10'0 0.0
2018-Jan-07 23:30N 26°06' W 080°10'0 0.0
2018-Jan-07 23:00N 26°06' W 080°10'0 0.0
2018-Jan-07 22:30N 26°06' W 080°10'0 0.0
2018-Jan-07 22:00N 26°06' W 080°10'0 0.0
2018-Jan-07 21:30N 26°06' W 080°10'0 0.0
2018-Jan-07 21:00N 26°06' W 080°10'0 0.0
2018-Jan-07 20:31N 26°06' W 080°10'0 0.0
2018-Jan-07 20:01N 26°06' W 080°10'0 0.0
2018-Jan-07 19:31N 26°06' W 080°10'0 0.0
2018-Jan-07 19:00N 26°06' W 080°10'0 0.0
2018-Jan-07 18:31N 26°06' W 080°10'0 0.0
2018-Jan-07 18:01N 26°06' W 080°10'0 0.0
2018-Jan-07 17:31N 26°06' W 080°10'0 0.0
2018-Jan-07 17:01N 26°06' W 080°10'0 0.0
2018-Jan-07 16:31N 26°06' W 080°10'0 0.0
2018-Jan-07 16:01N 26°06' W 080°10'0 0.0
2018-Jan-07 15:31N 26°06' W 080°10'0 0.0
2018-Jan-07 15:01N 26°06' W 080°10'0 0.0
2018-Jan-07 14:31N 26°06' W 080°10'0 0.0
2018-Jan-07 14:01N 26°06' W 080°10'0 0.0
2018-Jan-07 13:30N 26°06' W 080°10'0 0.0
2018-Jan-07 13:00N 26°06' W 080°10'0 0.0
2018-Jan-07 12:30N 26°06' W 080°10'0 0.0
2018-Jan-07 12:00N 26°06' W 080°10'0 0.0
2018-Jan-07 11:30N 26°06' W 080°10'0 0.0
2018-Jan-07 11:00N 26°06' W 080°10'0 0.0
2018-Jan-07 10:30N 26°06' W 080°10'0 0.0
2018-Jan-07 10:00N 26°06' W 080°10'0 0.0
2018-Jan-07 09:30N 26°06' W 080°10'0 0.0
2018-Jan-07 09:00N 26°06' W 080°10'0 0.0
2018-Jan-07 08:30N 26°06' W 080°10'0 0.0
2018-Jan-07 08:00N 26°06' W 080°10'0 0.0
2018-Jan-07 07:30N 26°06' W 080°10'0 0.0
2018-Jan-07 07:00N 26°06' W 080°10'0 0.0
2018-Jan-07 06:31N 26°06' W 080°10'0 0.0
2018-Jan-07 06:01N 26°06' W 080°10'0 0.0
2018-Jan-07 05:31N 26°06' W 080°10'0 0.0
2018-Jan-07 05:01N 26°06' W 080°10'0 0.0
2018-Jan-07 04:31N 26°06' W 080°10'0 0.0
2018-Jan-07 04:01N 26°06' W 080°10'0 0.0
2018-Jan-07 03:31N 26°06' W 080°10'0 0.0
2018-Jan-07 03:01N 26°06' W 080°10'0 0.0
2018-Jan-07 02:31N 26°06' W 080°10'0 0.0
2018-Jan-07 02:01N 26°06' W 080°10'0 0.0
2018-Jan-07 01:31N 26°06' W 080°10'0 0.0
2018-Jan-07 00:31N 26°06' W 080°10'0 0.0
2018-Jan-07 00:01N 26°06' W 080°10'0 0.0
2018-Jan-06 23:30N 26°06' W 080°10'0 0.0
2018-Jan-06 23:00N 26°06' W 080°10'0 0.0
2018-Jan-06 22:30N 26°06' W 080°10'0 0.0
2018-Jan-06 22:00N 26°06' W 080°10'0 0.0
2018-Jan-06 21:30N 26°06' W 080°10'0 0.0
2018-Jan-06 21:00N 26°06' W 080°10'0 0.0
2018-Jan-06 20:30N 26°06' W 080°10'0 0.0
2018-Jan-06 20:00N 26°06' W 080°10'0 0.0
2018-Jan-06 19:30N 26°06' W 080°10'0 0.0
2018-Jan-06 19:00N 26°06' W 080°10'0 0.0
2018-Jan-06 18:30N 26°06' W 080°10'0 0.0
2018-Jan-06 18:00N 26°06' W 080°10'0 0.0
2018-Jan-06 17:30N 26°06' W 080°10'0 0.0
2018-Jan-06 17:01N 26°06' W 080°10'0 0.0
2018-Jan-06 16:31N 26°06' W 080°10'0 0.0
2018-Jan-06 16:00N 26°06' W 080°10'0 0.0
2018-Jan-06 15:30N 26°06' W 080°10'0 0.0
2018-Jan-06 15:01N 26°06' W 080°10'0 0.0
2018-Jan-06 14:31N 26°06' W 080°10'0 0.0
2018-Jan-06 14:00N 26°06' W 080°10'0 0.0
2018-Jan-06 13:31N 26°06' W 080°10'0 0.0
2018-Jan-06 13:00N 26°06' W 080°10'0 0.0
2018-Jan-06 12:30N 26°06' W 080°10'0 0.0
2018-Jan-06 12:01N 26°06' W 080°10'0 0.0
2018-Jan-06 11:31N 26°06' W 080°10'0 0.0
2018-Jan-06 11:01N 26°06' W 080°10'0 0.0
2018-Jan-06 10:31N 26°06' W 080°10'0 0.0
2018-Jan-06 10:01N 26°06' W 080°10'0 0.0
2018-Jan-06 09:30N 26°06' W 080°10'0 0.0
2018-Jan-06 09:00N 26°06' W 080°10'0 0.0
2018-Jan-06 08:30N 26°06' W 080°10'0 0.0
2018-Jan-06 08:00N 26°06' W 080°10'0 0.0
2018-Jan-06 07:30N 26°06' W 080°10'0 0.0
2018-Jan-06 07:00N 26°06' W 080°10'0 0.0
2018-Jan-06 06:30N 26°06' W 080°10'0 0.0
2018-Jan-06 06:00N 26°06' W 080°10'0 0.0
2018-Jan-06 05:30N 26°06' W 080°10'0 0.0
2018-Jan-06 05:00N 26°06' W 080°10'0 0.0
2018-Jan-06 04:30N 26°06' W 080°10'0 0.0
2018-Jan-06 04:00N 26°06' W 080°10'0 0.0
2018-Jan-06 03:30N 26°06' W 080°10'0 0.0
2018-Jan-06 03:00N 26°06' W 080°10'0 0.0
2018-Jan-06 02:31N 26°06' W 080°10'0 0.0
2018-Jan-06 02:01N 26°06' W 080°10'0 0.0
2018-Jan-06 01:31N 26°06' W 080°10'0 0.0
2018-Jan-06 01:00N 26°06' W 080°10'0 0.0
2018-Jan-06 00:31N 26°06' W 080°10'0 0.0
2018-Jan-06 00:01N 26°06' W 080°10'0 0.0
2018-Jan-05 23:30N 26°06' W 080°10'0 0.0
2018-Jan-05 23:01N 26°06' W 080°10'0 0.0
2018-Jan-05 22:30N 26°06' W 080°10'0 0.0
2018-Jan-05 22:01N 26°06' W 080°10'0 0.0
2018-Jan-05 21:30N 26°06' W 080°10'0 0.0
2018-Jan-05 21:01N 26°06' W 080°10'0 0.0
2018-Jan-05 20:31N 26°06' W 080°10'0 0.0
2018-Jan-05 20:01N 26°06' W 080°10'0 0.0
2018-Jan-05 19:30N 26°06' W 080°10'0 0.0
2018-Jan-05 19:00N 26°06' W 080°10'0 0.0
2018-Jan-05 18:30N 26°06' W 080°10'0 0.0
2018-Jan-05 18:00N 26°06' W 080°10'0 0.0
2018-Jan-05 17:30N 26°06' W 080°10'0 0.0
2018-Jan-05 17:00N 26°06' W 080°10'0 0.0
2018-Jan-05 16:30N 26°06' W 080°10'0 0.0
2018-Jan-05 16:00N 26°06' W 080°10'0 0.0
2018-Jan-05 15:30N 26°06' W 080°10'0 0.0
2018-Jan-05 15:00N 26°06' W 080°10'0 0.0
2018-Jan-05 14:30N 26°06' W 080°10'0 0.0
2018-Jan-05 14:00N 26°06' W 080°10'0 0.0
2018-Jan-05 13:30N 26°06' W 080°10'0 0.0
2018-Jan-05 13:01N 26°06' W 080°10'0 0.0
2018-Jan-05 12:31N 26°06' W 080°10'0 0.0
2018-Jan-05 12:01N 26°06' W 080°10'0 0.0
2018-Jan-05 11:30N 26°06' W 080°10'0 0.0
2018-Jan-05 11:01N 26°06' W 080°10'0 0.0
2018-Jan-05 10:31N 26°06' W 080°10'0 0.0
2018-Jan-05 10:01N 26°06' W 080°10'0 0.0
2018-Jan-05 09:31N 26°06' W 080°10'0 0.0
2018-Jan-05 09:01N 26°06' W 080°10'0 0.0
2018-Jan-05 08:30N 26°06' W 080°10'0 0.0
2018-Jan-05 08:01N 26°06' W 080°10'0 0.0
2018-Jan-05 07:31N 26°06' W 080°10'0 0.0
2018-Jan-05 07:01N 26°06' W 080°10'0 0.0
2018-Jan-05 06:30N 26°06' W 080°10'0 0.0
2018-Jan-05 06:00N 26°06' W 080°10'0 0.0
2018-Jan-05 05:30N 26°06' W 080°10'0 0.0
2018-Jan-05 05:00N 26°06' W 080°10'0 0.0
2018-Jan-05 04:30N 26°06' W 080°10'0 0.0
2018-Jan-05 04:01N 26°06' W 080°10'0 0.0
2018-Jan-05 03:31N 26°06' W 080°10'0 0.0
2018-Jan-05 03:00N 26°06' W 080°10'0 0.0
2018-Jan-05 02:30N 26°06' W 080°10'0 0.0
2018-Jan-05 02:00N 26°06' W 080°10'0 0.0
2018-Jan-05 01:30N 26°06' W 080°10'0 0.0
2018-Jan-05 01:00N 26°06' W 080°10'0 0.0
2018-Jan-05 00:30N 26°06' W 080°10'0 0.0
2018-Jan-05 00:00N 26°06' W 080°10'0 0.0
2018-Jan-04 23:30N 26°06' W 080°10'0 0.0
2018-Jan-04 23:01N 26°06' W 080°10'0 0.0
2018-Jan-04 22:30N 26°06' W 080°10'0 0.0
2018-Jan-04 22:01N 26°06' W 080°10'0 0.0
2018-Jan-04 21:30N 26°06' W 080°10'0 0.0
2018-Jan-04 21:01N 26°06' W 080°10'0 0.0
2018-Jan-04 20:31N 26°06' W 080°10'0 0.0
2018-Jan-04 20:01N 26°06' W 080°10'0 0.0
2018-Jan-04 19:30N 26°06' W 080°10'0 0.0
2018-Jan-04 19:01N 26°06' W 080°10'0 0.0
2018-Jan-04 18:31N 26°06' W 080°10'0 0.0
2018-Jan-04 18:00N 26°06' W 080°10'0 0.0
2018-Jan-04 17:31N 26°06' W 080°10'0 0.0
2018-Jan-04 17:01N 26°06' W 080°10'0 0.0
2018-Jan-04 16:31N 26°06' W 080°10'0 0.0
2018-Jan-04 16:00N 26°06' W 080°10'0 0.0
2018-Jan-03 16:58N 26°06' W 080°10'0 0.0
2018-Jan-03 16:28N 26°06' W 080°10'0 0.0
2018-Jan-03 16:00N 26°06' W 080°10'0 0.0
2018-Jan-03 15:30N 26°06' W 080°10'0 0.0
2018-Jan-03 15:00N 26°06' W 080°10'0 0.0
2018-Jan-03 14:30N 26°06' W 080°10'0 0.0
2018-Jan-03 14:00N 26°06' W 080°10'0 0.0
2018-Jan-03 13:30N 26°06' W 080°10'0 0.0
2018-Jan-03 13:00N 26°06' W 080°10'0 0.0
2018-Jan-03 12:30N 26°06' W 080°10'0 0.0
2018-Jan-03 12:01N 26°06' W 080°10'0 0.0
2018-Jan-03 11:31N 26°06' W 080°10'0 0.0
2018-Jan-03 11:01N 26°06' W 080°10'0 0.0
2018-Jan-03 10:30N 26°06' W 080°10'0 0.0
2018-Jan-03 10:01N 26°06' W 080°10'0 0.0
2018-Jan-03 09:31N 26°06' W 080°10'0 0.0
2018-Jan-03 09:00N 26°06' W 080°10'0 0.0
2018-Jan-03 08:31N 26°06' W 080°10'0 0.0
2018-Jan-03 08:01N 26°06' W 080°10'0 0.0
2018-Jan-03 07:30N 26°06' W 080°10'0 0.0
2018-Jan-03 07:00N 26°06' W 080°10'0 0.0
2018-Jan-03 06:31N 26°06' W 080°10'0 0.0
2018-Jan-03 06:01N 26°06' W 080°10'0 0.0
2018-Jan-03 05:31N 26°06' W 080°10'0 0.0
2018-Jan-03 05:00N 26°06' W 080°10'0 0.0
2018-Jan-03 04:30N 26°06' W 080°10'0 0.0
2018-Jan-03 04:00N 26°06' W 080°10'0 0.0
2018-Jan-03 03:30N 26°06' W 080°10'0 0.0
2018-Jan-03 03:00N 26°06' W 080°10'0 0.0
2018-Jan-03 02:30N 26°06' W 080°10'0 0.0
2018-Jan-03 02:00N 26°06' W 080°10'0 0.0
2018-Jan-03 01:30N 26°06' W 080°10'0 0.0
2018-Jan-03 01:00N 26°06' W 080°10'0 0.0
2018-Jan-03 00:30N 26°06' W 080°10'0 0.0
2018-Jan-03 00:00N 26°06' W 080°10'0 0.0
2018-Jan-02 23:30N 26°06' W 080°10'0 0.0
2018-Jan-02 23:00N 26°06' W 080°10'0 0.0
2018-Jan-02 22:31N 26°06' W 080°10'0 0.0
2018-Jan-02 22:01N 26°06' W 080°10'0 0.0
2018-Jan-02 21:31N 26°06' W 080°10'0 0.0
2018-Jan-02 21:01N 26°06' W 080°10'0 0.0
2018-Jan-02 20:31N 26°06' W 080°10'0 0.0
2018-Jan-02 20:01N 26°06' W 080°10'0 0.0
2018-Jan-02 19:30N 26°06' W 080°10'0 0.0
2018-Jan-02 19:00N 26°06' W 080°10'0 0.0
2018-Jan-02 18:31N 26°06' W 080°10'0 0.0
2018-Jan-02 18:01N 26°06' W 080°10'0 0.0
2018-Jan-02 17:31N 26°06' W 080°10'0 0.0
2018-Jan-02 17:01N 26°06' W 080°10'0 0.0
2018-Jan-02 16:31N 26°06' W 080°10'0 0.0
2018-Jan-02 16:00N 26°06' W 080°10'0 0.0
2018-Jan-02 15:30N 26°06' W 080°10'0 0.0
2018-Jan-02 15:01N 26°06' W 080°10'0 0.0
2018-Jan-02 14:30N 26°06' W 080°10'0 0.0
2018-Jan-02 14:01N 26°06' W 080°10'0 0.0
2018-Jan-02 13:30N 26°06' W 080°10'0 0.0
2018-Jan-02 13:00N 26°06' W 080°10'0 0.0
2018-Jan-02 12:30N 26°06' W 080°10'0 0.0
2018-Jan-02 12:01N 26°06' W 080°10'0 0.0
2018-Jan-02 11:31N 26°06' W 080°10'0 0.0
2018-Jan-02 11:00N 26°06' W 080°10'0 0.0
2018-Jan-02 10:31N 26°06' W 080°10'0 0.0
2018-Jan-02 10:01N 26°06' W 080°10'0 0.0
2018-Jan-02 09:31N 26°06' W 080°10'0 0.0
2018-Jan-02 08:31N 26°06' W 080°10'0 0.0
2018-Jan-02 08:01N 26°06' W 080°10'0 0.0
2018-Jan-02 07:31N 26°06' W 080°10'0 0.0
2018-Jan-02 07:01N 26°06' W 080°10'0 0.0
2018-Jan-02 06:31N 26°06' W 080°10'0 0.0
2018-Jan-02 06:00N 26°06' W 080°10'0 0.0
2018-Jan-02 05:31N 26°06' W 080°10'0 0.0
2018-Jan-02 04:30N 26°06' W 080°10'0 0.0
2018-Jan-02 04:01N 26°06' W 080°10'0 0.0
2018-Jan-02 03:31N 26°06' W 080°10'0 0.0
2018-Jan-02 03:01N 26°06' W 080°10'0 0.0
2018-Jan-02 02:31N 26°06' W 080°10'0 0.0
2018-Jan-02 02:01N 26°06' W 080°10'0 0.0
2018-Jan-02 01:30N 26°06' W 080°10'0 0.0
2018-Jan-02 01:01N 26°06' W 080°10'0 0.0
2018-Jan-02 00:30N 26°06' W 080°10'0 0.0
2018-Jan-02 00:00N 26°06' W 080°10'0 0.0
2018-Jan-01 23:31N 26°06' W 080°10'0 0.0
2018-Jan-01 23:01N 26°06' W 080°10'0 0.0
2018-Jan-01 22:30N 26°06' W 080°10'0 0.0
2018-Jan-01 22:01N 26°06' W 080°10'0 0.0
2018-Jan-01 21:31N 26°06' W 080°10'0 0.0
2018-Jan-01 21:00N 26°06' W 080°10'0 0.0
2018-Jan-01 20:31N 26°06' W 080°10'0 0.0
2018-Jan-01 20:00N 26°06' W 080°10'0 0.0
2018-Jan-01 19:30N 26°06' W 080°10'0 0.0
2018-Jan-01 19:00N 26°06' W 080°10'0 0.0
2018-Jan-01 18:31N 26°06' W 080°10'0 0.0
2018-Jan-01 18:01N 26°06' W 080°10'0 0.0
2018-Jan-01 17:31N 26°06' W 080°10'0 0.0
2018-Jan-01 15:01N 26°06' W 080°10'0 0.0
2018-Jan-01 14:31N 26°06' W 080°10'0 0.0
2018-Jan-01 14:00N 26°06' W 080°10'0 0.0
2018-Jan-01 13:31N 26°06' W 080°10'0 0.0
2018-Jan-01 13:01N 26°06' W 080°10'0 0.0
2018-Jan-01 12:01N 26°06' W 080°10'0 0.0
2018-Jan-01 11:30N 26°06' W 080°10'0 0.0
2018-Jan-01 11:00N 26°06' W 080°10'0 0.0
2018-Jan-01 10:30N 26°06' W 080°10'0 0.0
2018-Jan-01 10:01N 26°06' W 080°10'0 0.0
2018-Jan-01 09:30N 26°06' W 080°10'0 0.0
2018-Jan-01 08:31N 26°06' W 080°10'0 0.0
2018-Jan-01 08:01N 26°06' W 080°10'0 0.0
2018-Jan-01 07:31N 26°06' W 080°10'0 0.0
2018-Jan-01 07:00N 26°06' W 080°10'0 0.0
2018-Jan-01 06:01N 26°06' W 080°10'0 0.0
2018-Jan-01 05:30N 26°06' W 080°10'0 0.0
2018-Jan-01 05:00N 26°06' W 080°10'0 0.0
2018-Jan-01 04:01N 26°06' W 080°10'0 0.0
2018-Jan-01 03:30N 26°06' W 080°10'0 0.0
2018-Jan-01 03:00N 26°06' W 080°10'0 0.0
2018-Jan-01 02:30N 26°06' W 080°10'0 0.0
2018-Jan-01 02:00N 26°06' W 080°10'0 0.0
2018-Jan-01 01:31N 26°06' W 080°10'0 0.0
2018-Jan-01 00:31N 26°06' W 080°10'0 0.0
2017-Dec-31 21:01N 26°06' W 080°10'0 0.0
2017-Dec-31 20:30N 26°06' W 080°10'0 0.0
2017-Dec-31 20:01N 26°06' W 080°10'0 0.0
2017-Dec-31 19:30N 26°06' W 080°10'0 0.0
2017-Dec-31 19:00N 26°06' W 080°10'0 0.0
2017-Dec-31 18:31N 26°06' W 080°10'0 0.0
2017-Dec-31 18:00N 26°06' W 080°10'0 0.0
2017-Dec-31 17:31N 26°06' W 080°10'0 0.0
2017-Dec-31 17:00N 26°06' W 080°10'0 0.0
2017-Dec-31 16:30N 26°06' W 080°10'0 0.0
2017-Dec-31 16:00N 26°06' W 080°10'0 0.0
2017-Dec-31 15:30N 26°06' W 080°10'0 0.0
2017-Dec-31 15:00N 26°06' W 080°10'0 0.0
2017-Dec-31 14:30N 26°06' W 080°10'0 0.0
2017-Dec-31 14:00N 26°06' W 080°10'0 0.0
2017-Dec-31 13:30N 26°06' W 080°10'0 0.0
2017-Dec-31 13:00N 26°06' W 080°10'0 0.0
2017-Dec-31 12:31N 26°06' W 080°10'0 0.0
2017-Dec-31 12:00N 26°06' W 080°10'0 0.0
2017-Dec-31 11:31N 26°06' W 080°10'0 0.0
2017-Dec-31 11:01N 26°06' W 080°10'0 0.0
2017-Dec-31 10:30N 26°06' W 080°10'0 0.0
2017-Dec-31 10:00N 26°06' W 080°10'0 0.0
2017-Dec-31 09:30N 26°06' W 080°10'0 0.0
2017-Dec-31 09:00N 26°06' W 080°10'0 0.0
2017-Dec-31 08:30N 26°06' W 080°10'0 0.0
2017-Dec-31 08:00N 26°06' W 080°10'0 0.0
2017-Dec-31 07:30N 26°06' W 080°10'0 0.0
2017-Dec-31 07:00N 26°06' W 080°10'0 0.0
2017-Dec-31 06:30N 26°06' W 080°10'0 0.0
2017-Dec-31 06:00N 26°06' W 080°10'0 0.0
2017-Dec-31 05:30N 26°06' W 080°10'0 0.0
2017-Dec-31 05:00N 26°06' W 080°10'0 0.0
2017-Dec-31 04:30N 26°06' W 080°10'0 0.0
2017-Dec-31 04:00N 26°06' W 080°10'0 0.0
2017-Dec-31 03:30N 26°06' W 080°10'0 0.0
2017-Dec-31 03:00N 26°06' W 080°10'0 0.0
2017-Dec-31 02:30N 26°06' W 080°10'0 0.0
2017-Dec-31 02:01N 26°06' W 080°10'0 0.0
2017-Dec-31 01:30N 26°06' W 080°10'0 0.0
2017-Dec-31 01:00N 26°06' W 080°10'0 0.0
2017-Dec-31 00:30N 26°06' W 080°10'0 0.0
2017-Dec-31 00:00N 26°06' W 080°10'0 0.0
2017-Dec-30 23:31N 26°06' W 080°10'0 0.0
2017-Dec-30 23:00N 26°06' W 080°10'0 0.0
2017-Dec-30 22:30N 26°06' W 080°10'0 0.0
2017-Dec-30 22:00N 26°06' W 080°10'0 0.0
2017-Dec-30 21:30N 26°06' W 080°10'0 0.0
2017-Dec-30 21:01N 26°06' W 080°10'0 0.0
2017-Dec-30 20:30N 26°06' W 080°10'0 0.0
2017-Dec-30 20:00N 26°06' W 080°10'0 0.0
2017-Dec-30 19:31N 26°06' W 080°10'0 0.0
2017-Dec-30 19:00N 26°06' W 080°10'0 0.0
2017-Dec-30 18:31N 26°06' W 080°10'0 0.0
2017-Dec-30 18:00N 26°06' W 080°10'0 0.0
2017-Dec-30 17:30N 26°06' W 080°10'0 0.0
2017-Dec-30 17:00N 26°06' W 080°10'0 0.0
2017-Dec-30 16:30N 26°06' W 080°10'0 0.0
2017-Dec-30 16:00N 26°06' W 080°10'0 0.0
2017-Dec-30 15:30N 26°06' W 080°10'0 0.0
2017-Dec-30 15:00N 26°06' W 080°10'0 0.0
2017-Dec-30 14:30N 26°06' W 080°10'0 0.0
2017-Dec-30 14:00N 26°06' W 080°10'0 0.0
2017-Dec-30 13:30N 26°06' W 080°10'0 0.0
2017-Dec-30 13:01N 26°06' W 080°10'0 0.0
2017-Dec-30 12:30N 26°06' W 080°10'0 0.0
2017-Dec-30 12:00N 26°06' W 080°10'0 0.0
2017-Dec-30 11:30N 26°06' W 080°10'0 0.0
2017-Dec-30 11:00N 26°06' W 080°10'0 0.0
2017-Dec-30 10:30N 26°06' W 080°10'0 0.0
2017-Dec-30 10:00N 26°06' W 080°10'0 0.0
2017-Dec-30 09:31N 26°06' W 080°10'0 0.0
2017-Dec-30 09:00N 26°06' W 080°10'0 0.0
2017-Dec-30 08:31N 26°06' W 080°10'0 0.0
2017-Dec-30 08:00N 26°06' W 080°10'0 0.0
2017-Dec-30 07:31N 26°06' W 080°10'0 0.0
2017-Dec-30 07:01N 26°06' W 080°10'0 0.0
2017-Dec-30 06:30N 26°06' W 080°10'0 0.0
2017-Dec-30 06:01N 26°06' W 080°10'0 0.0
2017-Dec-30 05:30N 26°06' W 080°10'0 0.0
2017-Dec-30 05:00N 26°06' W 080°10'0 0.0
2017-Dec-30 04:30N 26°06' W 080°10'0 0.0
2017-Dec-30 04:00N 26°06' W 080°10'0 0.0
2017-Dec-30 03:30N 26°06' W 080°10'0 0.0
2017-Dec-30 03:00N 26°06' W 080°10'0 0.0
2017-Dec-30 02:30N 26°06' W 080°10'0 0.0
2017-Dec-30 02:00N 26°06' W 080°10'0 0.0
2017-Dec-30 01:31N 26°06' W 080°10'0 0.0
2017-Dec-30 01:00N 26°06' W 080°10'  

Dump ship's entire track history